FLUGWETTER MÜNCHEN AIRPORT

[source: ADDS]
METAR
EDDM 231620Z 26006KT 9999 FEW036 BKN060 22/13 Q1017 NOSIG =
TAF
TAF EDDM 231100Z 2312/2418 27008KT 9999 SCT020 BKN040 BECMG 2322/2324 12003KT BECMG 2409/2411 29010KT PROB30 TEMPO 2410/2412 31015G25KT TSRA BKN030CB TEMPO 2412/2416 RA =
SR / SS: 03:39 / 19:02 UTC (Tag 2017-07-23)

QR-Code dieser Seite

QR-Code dieser Seite